Tiempo atmosférico en la estación meteorológica de Tarifa, Cádiz (32 m.)



Fecha
DESCASC
Temp. máxima en grados centígrados (hora)
DESCASC
Temp. mínima en grados centígrados (hora)
DESCASC
Temp. media en grados centígrados
DESCASC
Racha de viento máxima en m/sg (hora)
DESCASC
Velocidad máxima media en intervalos de 10 minutos(hora)
DESCASC
Precipitaciones diarias en mm
DESCASC
Precipitaciones de 00:00 a 06:00 en mm
DESCASC
Precipitaciones de 06:00 a 12:00 en mm
DESCASC
Precipitaciones de 12:00 a 18:00 en mm
DESCASC
Precipitaciones de 18:00 a 24:00 en mm
DESCASC
31-03-2020 18 (14:00) 12.3 (01:10) 15.2 13.06 (17:00) 8.06 (14:50) 21.8 13 6 0.2 2.6
30-03-2020 17.1 (13:10) 9.6 (07:30) 13.4 8.89 (17:20) 5.83 (16:20) 3.9 0 0 0 3.9
29-03-2020 16.7 (15:10) 12.4 (00:00) 14.6 13.06 (01:30) 8.61 (00:40) 0 0 0 0 0
28-03-2020 17 (14:00) 8.5 (00:00) 12.8 12.78 (23:50) 8.89 (15:40) 0 0 0 0 0
27-03-2020 16.8 (15:30) 10.4 (00:00) 13.6 8.33 (01:20) 5.28 (01:30) 0 0 0 0 0
26-03-2020 16.8 (15:10) 8 (00:00) 12.4 10.83 (16:40) 6.94 (16:40) 0 0 0 0 0
25-03-2020 16.4 (14:50) 11.7 (00:00) 14 14.72 (05:40) 10.28 (01:40) 0.5 0 0.5 0 0
24-03-2020 14.4 (00:20) 10.8 (00:00) 12.6 15.56 (23:10) 11.39 (23:10) 34.7 7.4 19.5 7.7 0.1
23-03-2020 -- (--) -- (--) -- -- (--) -- (--) -- -- -- 0 0
22-03-2020 -- (--) -- (--) -- -- (--) -- (--) -- -- -- -- --
21-03-2020 -- (--) -- (--) -- -- (--) -- (--) -- 0.3 -- -- --
20-03-2020 16 (13:30) 12.8 (00:00) 14.4 17.5 (01:30) 12.22 (01:10) 3 0 0 0 3
19-03-2020 15.4 (11:10) 14.5 (00:00) 14.9 21.67 (12:20) 14.72 (13:40) 0 0 0 0 0
18-03-2020 16.6 (14:00) 14.1 (00:00) 15.4 24.17 (01:00) 16.94 (22:00) 3.8 3 0.8 0 0
17-03-2020 15.7 (17:10) 8.7 (00:00) 12.2 20.28 (22:10) 13.06 (22:00) 14.1 0 1.9 0 12.2
16-03-2020 15.7 (02:10) 10.3 (00:00) 13 15.28 (14:20) 9.17 (13:40) 0 0 0 0 0
15-03-2020 16.9 (16:50) 14 (00:00) 15.4 16.67 (01:50) 11.39 (01:20) 0 0 0 0 0
14-03-2020 18.2 (12:20) 9.7 (00:00) 14 15.83 (23:10) 10.83 (23:50) 0 0 0 0 0
13-03-2020 17.2 (15:40) 11.7 (23:59) 14.5 21.11 (16:20) 6.11 (16:40) 0 0 0 0 0
12-03-2020 21.3 (00:50) 14.4 (00:00) 17.8 10.83 (00:50) 7.78 (06:00) 0 0 0 0 0
11-03-2020 20.8 (23:59) 15.3 (00:00) 18 19.17 (11:00) 13.06 (12:10) 0 0 0 0 0
10-03-2020 19.7 (12:20) 10.8 (00:00) 15.3 16.11 (19:40) 10.28 (19:40) 0 0 0 0 0
09-03-2020 18 (14:20) 8.3 (00:00) 13.2 12.5 (18:30) 7.78 (15:20) 0 0 0 0 0
08-03-2020 18.5 (18:50) 8.9 (00:00) 13.7 10.83 (10:50) 7.5 (13:10) 0 0 0 0 0
07-03-2020 18.1 (15:00) 7.1 (00:00) 12.6 8.06 (16:20) 5.83 (13:30) 0 0 0 0 0
06-03-2020 15.7 (13:20) 7.7 (00:00) 11.7 14.44 (13:00) 9.72 (15:40) 0 0 0 0 0
05-03-2020 16.3 (14:40) 12.2 (00:00) 14.2 18.33 (11:10) 8.06 (16:00) 0.5 0 0 0.5 0
04-03-2020 17.3 (15:30) 13.1 (00:00) 15.2 11.67 (15:40) 8.33 (17:00) 0 0 0 0 0
03-03-2020 16.7 (17:00) 11.2 (00:00) 14 12.5 (14:30) 8.61 (14:10) 0 0 0 0 0
02-03-2020 17.9 (14:20) 14.9 (00:00) 16.4 16.11 (11:40) 9.72 (07:20) 0.1 0 0.1 0 0

Gráficas

Temp. máximas Temp. mínimas Temp. medias Precipitaciones Rachas de viento máximas Velocidades máximas media en intervalos de 10 minutos

Datos horarios

Fecha y hora oficial Temperatura (ºC) Velocidad del viento (km/h) Dirección del viento Racha (km/h) Dirección de racha Precipitación (mm) Presión (hPa) Tendencia (hPa) Humedad (%)
2020-03-31 23:00:00 14.2 15 Noroeste 25 Noroeste 0 1006.3 2.3 93
2020-03-31 22:00:00 13.6 16 Noroeste 24 Noroeste 2.2 1006 2.5 95
2020-03-31 21:00:00 14.3 13 Norte 37 Noroeste 0.2 1004.7 1.6 89
2020-03-31 20:00:00 16.1 24 Noroeste 39 Noroeste 0 1004 1.2 83
2020-03-31 19:00:00 16.2 27 Noroeste 41 Noroeste 0 1003.5 1 85
2020-03-31 18:00:00 16.6 27 Noroeste 46 Norte 0 1003.1 0.2 81
2020-03-31 17:00:00 17.1 26 Noroeste 47 Norte 0 1002.8 0.5 82
2020-03-31 16:00:00 17.6 15 Noroeste 34 Noroeste 0 1002.5 0.2 81
2020-03-31 15:00:00 15 26 Noroeste 42 Noroeste 0.2 1002.9 0.8 91
2020-03-31 14:00:00 18 18 Noroeste 36 Noroeste 0 1002.3 0.6 77
2020-03-31 13:00:00 17 28 Noroeste 44 Noroeste 0 1002.3 0.9 77
2020-03-31 12:00:00 16.5 23 Noroeste 37 Oeste 0 1002.1 1.1 82
2020-03-31 11:00:00 15.9 21 Oeste 35 Oeste 0 1001.7 1.6 88
2020-03-31 10:00:00 14.6 15 Oeste 40 Norte 5.1 1001.4 1.5 95
2020-03-31 09:00:00 14.2 19 Oeste 41 Noroeste 0.7 1001 1.3 94
2020-03-31 08:00:00 14.2 26 Oeste 42 Oeste 0.1 1000.1 -0.3 97
2020-03-31 07:00:00 14 22 Oeste 33 Oeste 0.1 999.9 -1.2 96
2020-03-31 06:00:00 14.1 16 Oeste 22 Oeste 0.1 999.7 -1.4 96
2020-03-31 05:00:00 12.7 7 Sur 24 Sur 0 1000.4 -0.7 97
2020-03-31 04:00:00 12.9 11 Sur 24 Sudoeste 0.2 1001.1 -1.2 96
2020-03-31 03:00:00 13 6 Sudoeste 23 Sur 2 1001.1 -1.2 97
2020-03-31 02:00:00 12.6 18 Sur 26 Sur 4.1 1001.1 -1.2 98
2020-03-31 01:00:00 12.4 9 Sudoeste 23 Sudoeste 6.6 1002.3 -0.7 95
2020-03-31 00:00:00 14.1 10 Sur 21 Sur 3.9 1002.3 -0.7 94
2020-03-30 23:00:00 14.5 14 Sur 25 Sur 0 1002.3 -1.1 87
2020-03-30 22:00:00 14.4 11 Sur 18 Sur 0 1003 -0.9 88
2020-03-30 21:00:00 14.7 6 Este 10 Nordeste 0 1003 -1.6 84
2020-03-30 20:00:00 15.2 6 Nordeste 13 Norte 0 1003.4 -1.5 81
2020-03-30 19:00:00 15.9 9 Norte 27 Nordeste 0 1003.9 -1.9 80
2020-03-30 18:00:00 16.1 15 Nordeste 32 Norte 0 1004.6 -1.6 77
2020-03-30 17:00:00 16.1 18 Norte 30 Norte 0 1004.9 -2 75
2020-03-30 16:00:00 16.4 17 Nordeste 27 Norte 0 1005.8 -2.1 74
2020-03-30 15:00:00 16.2 16 Norte 24 Nordeste 0 1006.2 -2.5 75
2020-03-30 14:00:00 16.2 11 Nordeste 19 Nordeste 0 1006.9 -2 74
2020-03-30 13:00:00 16.9 10 Noroeste 17 Noroeste 0 1007.9 -1 73
2020-03-30 12:00:00 15.8 6 Noroeste 13 Noroeste 0 1008.7 -0.2 80
2020-03-30 11:00:00 14.8 6 Oeste 14 Oeste 0 1008.9 0.2 87
2020-03-30 10:00:00 13.8 6 Oeste 16 Oeste 0 1008.9 -0.1 94
2020-03-30 09:00:00 11 3 Nordeste 11 Norte 0 1008.9 -0.4 99
2020-03-30 08:00:00 10.1 4 Este 8 Nordeste 0 1008.7 -1.2 99
2020-03-30 07:00:00 10.5 4 Este 6 Este 0 1009 -1.3 98
2020-03-30 06:00:00 10.3 4 Este 7 Este 0 1009.3 -1.5 96
2020-03-30 05:00:00 10.4 5 Este 9 Este 0 1009.9 -1.8 94
2020-03-30 04:00:00 10.8 7 Este 10 Este 0 1010.3 -1.9 94
2020-03-30 03:00:00 11.7 8 Este 12 Este 0 1010.8 -1.7 90
2020-03-30 02:00:00 12.1 8 Este 11 Este 0 1011.7 -0.9 91
2020-03-30 01:00:00 12.5 6 Nordeste 11 Nordeste 0 1012.2 0 92
2020-03-30 00:00:00 13 5 Este 10 Este 0 1012.5 0.5 91
2020-03-29 23:00:00 13.5 5 Nordeste 8 Norte 0 1012.6 0.3 90
2020-03-29 22:00:00 14.2 2 Norte 8 Norte 0 1012.2 0.2 85
2020-03-29 21:00:00 14.3 4 Sudeste 14 Sur 0 1012 -0.1 85
2020-03-29 20:00:00 14.7 10 Sur 18 Sur 0 1012.3 -0.2 84
2020-03-29 19:00:00 14.6 11 Sur 22 Sur 0 1012 -0.9 82
2020-03-29 18:00:00 15.2 15 Sur 27 Sur 0 1012.1 -1.3 79
2020-03-29 17:00:00 15.7 22 Sur 30 Sur 0 1012.5 -1.4 77
2020-03-29 16:00:00 15.7 22 Sur 32 Sur 0 1012.9 -1.5 77
2020-03-29 15:00:00 16.5 19 Sur 33 Sur 0 1013.4 -1.3 73
2020-03-29 14:00:00 16.4 20 Sur 31 Sur 0 1013.9 -0.7 74
2020-03-29 13:00:00 16.2 20 Sur 31 Sur 0 1014.4 0.1 74
2020-03-29 12:00:00 16.1 21 Sur 30 Sur 0 1014.7 0.8 74
2020-03-29 11:00:00 15.2 20 Sur 32 Sur 0 1014.6 1.3 78
2020-03-29 10:00:00 14.4 21 Sur 31 Sur 0 1014.3 1.4 79
2020-03-29 09:00:00 13.2 17 Sudeste 34 Sudeste 0 1013.9 0.7 84
2020-03-29 08:00:00 12.7 20 Sudeste 37 Sur 0 1013.3 -0.2 85
2020-03-29 07:00:00 12.5 23 Sur 40 Sur 0 1012.9 -0.8 85
2020-03-29 06:00:00 12.8 26 Sur 39 Sur 0 1013.2 -0.9 83
2020-03-29 05:00:00 13 23 Sudeste 40 Sur 0 1013.5 -0.8 84
2020-03-29 03:00:00 13.7 28 Sur 47 Sur 0 1014.1 -0.2 83
2020-03-29 01:00:00 13.7 27 Sur 46 Sur 0 1014.3 0.3 83
2020-03-29 00:00:00 13.8 26 Sur 46 Sur 0 1014.4 1.1 85
2020-03-28 23:00:00 13.9 28 Sur 45 Sur 0 1014.3 1.7 86
2020-03-28 22:00:00 13.9 26 Sur 42 Sur 0 1014 2 85
2020-03-28 21:00:00 13.9 26 Sur 40 Sur 0 1013.3 1.5 86
2020-03-28 20:00:00 13.7 25 Sur 42 Sur 0 1012.6 1.1 86
2020-03-28 19:00:00 14.2 24 Sur 45 Sur 0 1012 0.5 86
2020-03-28 18:00:00 14.7 27 Sur 43 Sur 0 1011.8 0.5 83
2020-03-28 17:00:00 15 27 Sur 42 Sur 0 1011.5 0.2 84
2020-03-28 16:00:00 14.9 26 Sur 45 Sur 0 1011.5 -0.1 86
2020-03-28 15:00:00 16.3 26 Sur 40 Sur 0 1011.3 -0.4 82
2020-03-28 14:00:00 16.7 22 Sur 33 Sur 0 1011.3 -0.4 69
2020-03-28 13:00:00 16.4 17 Sur 26 Sur 0 1011.6 0.4 74
2020-03-28 12:00:00 15.8 15 Sur 23 Sur 0 1011.7 1 75
2020-03-28 11:00:00 15.7 11 Sur 20 Sur 0 1011.7 1.6 75
2020-03-28 10:00:00 15.5 8 Sudoeste 14 Sudoeste 0 1011.2 2 77
2020-03-28 09:00:00 13.8 5 Sudeste 12 Sudeste 0 1010.7 2 87
2020-03-28 08:00:00 12.1 6 Sudeste 13 Sudeste 0 1010.1 1.7 91
2020-03-28 07:00:00 10.9 5 Sudeste 9 Sur 0 1009.2 0.8 97
2020-03-28 06:00:00 9.3 3 Sur 10 Sur 0 1008.7 0 99
2020-03-28 05:00:00 9.2 2 Sudeste 9 Sudeste 0 1008.4 -0.4 97
2020-03-28 04:00:00 8.6 6 Sudeste 9 Este 0 1008.4 -0.4 97
2020-03-28 03:00:00 9 4 Sudeste 9 Este 0 1008.7 0 95
2020-03-28 02:00:00 9.6 8 Este 11 Este 0 1008.8 0.4 92
2020-03-28 01:00:00 10.1 9 Este 11 Este 0 1008.8 0.7 90
2020-03-28 00:00:00 10.4 9 Este 12 Este 0 1008.7 1.5 89
2020-03-27 23:00:00 11.5 10 Este 12 Este 0 1008.4 1.8 87
2020-03-27 22:00:00 12.3 7 Nordeste 14 Nordeste 0 1008.1 2.1 86
2020-03-27 21:00:00 13.9 6 Nordeste 16 Norte 0 1007.2 1.4 84
2020-03-27 20:00:00 14.2 9 Norte 17 Norte 0 1006.6 1.2 81
2020-03-27 19:00:00 15.2 10 Norte 20 Norte 0 1006 0.5 76
2020-03-27 18:00:00 16 9 Norte 24 Norte 0 1005.8 0.1 76
2020-03-27 17:00:00 16.1 16 Norte 26 Norte 0 1005.4 -1.1 74
2020-03-27 16:00:00 16.1 18 Norte 27 Nordeste 0 1005.5 -1.2 74
2020-03-27 15:00:00 16.1 15 Norte 24 Norte 0 1005.7 -1.2 74
2020-03-27 14:00:00 15.7 14 Norte 22 Norte 0 1006.5 -0.1 75
2020-03-27 13:00:00 15.5 12 Norte 21 Norte 0 1006.7 0.1 78
2020-03-27 12:00:00 15.3 15 Norte 22 Norte 0 1006.9 1 76
2020-03-27 11:00:00 15 10 Norte 18 Nordeste 0 1006.6 1.1 76
2020-03-27 10:00:00 14.4 10 Norte 18 Nordeste 0 1006.6 1.7 79
2020-03-27 09:00:00 13 10 Este 15 Este 0 1005.9 1.1 87
2020-03-27 08:00:00 11.6 10 Este 15 Nordeste 0 1005.5 0.7 90
2020-03-27 07:00:00 11 11 Este 14 Este 0 1004.9 0 94
2020-03-27 06:00:00 11.2 11 Este 15 Este 0 1004.8 -0.3 94
2020-03-27 05:00:00 10.4 8 Este 12 Nordeste 0 1004.8 -0.9 96
2020-03-27 04:00:00 13.2 7 Nordeste 12 Nordeste 0 1004.9 -1.2 93
2020-03-27 03:00:00 14.2 6 Nordeste 25 Noroeste 0 1005.1 -1.8 93
2020-03-27 02:00:00 14.8 11 Norte 30 Norte 0 1005.7 -1.3 92
2020-03-27 01:00:00 14.9 17 Norte 28 Norte 0 1006.1 -1 93
2020-03-27 00:00:00 14.7 15 Noroeste 25 Noroeste 0 1006.9 -0.1 93
2020-03-26 23:00:00 14.7 9 Noroeste 17 Noroeste 0 1007 0.5 95
2020-03-26 22:00:00 14.8 10 Norte 22 Norte 0 1007.1 0.6 93
2020-03-26 21:00:00 14.8 12 Norte 29 Norte 0 1007 0.4 92
2020-03-26 20:00:00 14.9 17 Norte 29 Norte 0 1006.5 -0.4 93
2020-03-26 19:00:00 15.4 19 Norte 32 Noroeste 0 1006.5 -0.6 90
2020-03-26 18:00:00 16.5 18 Norte 32 Norte 0 1006.6 -0.9 85
2020-03-26 17:00:00 16.4 22 Norte 39 Norte 0 1006.9 -1.2 86
2020-03-26 16:00:00 16.8 20 Norte 39 Norte 0 1007.1 -1.6 85
2020-03-26 15:00:00 16.7 20 Norte 37 Noroeste 0 1007.5 -1.7 86
2020-03-26 14:00:00 16.3 21 Noroeste 34 Noroeste 0 1008.1 -1.3 86
2020-03-26 13:00:00 16.4 18 Noroeste 32 Noroeste 0 1008.7 -0.4 84
2020-03-26 12:00:00 14.9 14 Noroeste 22 Noroeste 0 1009.2 0.2 87
2020-03-26 11:00:00 14.3 15 Norte 22 Norte 0 1009.4 0.6 88
2020-03-26 10:00:00 14 16 Norte 22 Norte 0 1009.1 0.3 85
2020-03-26 09:00:00 12.2 9 Nordeste 15 Nordeste 0 1009 0.1 88
2020-03-26 08:00:00 10.2 9 Nordeste 14 Nordeste 0 1008.8 -0.3 92
2020-03-26 07:00:00 8.1 6 Este 9 Sudeste 0 1008.8 -0.8 98
2020-03-26 06:00:00 8.4 5 Sudeste 8 Este 0 1008.9 -1.4 97
2020-03-26 05:00:00 9.6 7 Sudeste 9 Este 0 1009.1 -1.8 95
2020-03-26 04:00:00 10.3 6 Sudeste 13 Sur 0 1009.6 -1.3 93
2020-03-26 03:00:00 11.1 8 Sudeste 15 Sudeste 0 1010.3 -1.2 90
2020-03-26 02:00:00 11.4 8 Sudeste 15 Sudeste 0 1010.9 -1 89
2020-03-26 01:00:00 11.4 8 Sudeste 15 Sudeste 0 1010.9 -1.2 89
2020-03-26 00:00:00 11.7 10 Sudeste 20 Sudeste 0 1011.5 -0.3 86
2020-03-25 23:00:00 12.3 13 Sudeste 23 Sudeste 0 1011.9 0.7 83
2020-03-25 22:00:00 12 13 Sudeste 22 Sur 0 1012.1 0.8 78
2020-03-25 21:00:00 12.2 11 Sudeste 29 Sur 0 1011.8 0.7 80
2020-03-25 20:00:00 13.3 18 Sur 30 Sur 0 1011.2 0 77
2020-03-25 19:00:00 14.2 19 Sur 35 Sur 0 1011.3 -0.3 74
2020-03-25 18:00:00 14.9 24 Sur 38 Sur 0 1011.1 -0.8 76
2020-03-25 17:00:00 15.2 25 Sur 41 Sur 0 1011.2 -0.8 73
2020-03-25 16:00:00 15.6 25 Sur 39 Sur 0 1011.6 -0.5 75
2020-03-25 15:00:00 16.2 24 Sur 38 Sur 0 1011.9 -0.6 75
2020-03-25 14:00:00 15.7 28 Sur 40 Sur 0 1012 -0.5 73
2020-03-25 13:00:00 15.6 25 Sur 40 Sur 0 1012.1 -0.2 76
2020-03-25 12:00:00 14.7 25 Sur 41 Sur 0 1012.5 1 76
2020-03-25 11:00:00 14 24 Sur 39 Sur 0 1012.5 1.8 77
2020-03-25 10:00:00 13.5 19 Sudeste 43 Sur 0 1012.3 2.3 90
2020-03-25 09:00:00 13.3 23 Sur 37 Sur 0.5 1011.5 2 90
2020-03-25 08:00:00 14 24 Sur 42 Sur 0 1010.7 1.6 86
2020-03-25 07:00:00 13.9 26 Sur 44 Sur 0 1010 1.2 89
2020-03-25 06:00:00 14.1 32 Sur 53 Sur 0 1009.5 0.3 84
2020-03-25 05:00:00 14.3 29 Sur 46 Sur 0 1009.1 -0.2 86
2020-03-25 04:00:00 14.2 32 Sur 48 Sur 0 1008.8 -0.5 88
2020-03-25 03:00:00 14.1 31 Sur 47 Sur 0 1009.2 0.2 88
2020-03-25 02:00:00 14.2 35 Sur 51 Sur 0 1009.3 0.5 89
2020-03-25 01:00:00 14.1 33 Sur 49 Sur 0 1009.3 0.9 85
2020-03-25 00:00:00 14 33 Sur 56 Sur 0 1009 1.7 89
2020-03-24 23:00:00 14.1 35 Sur 51 Sur 0.1 1008.8 2.5 89
2020-03-24 22:00:00 13.4 19 Sur 29 Sur 0 1008.4 2.6 95
2020-03-24 21:00:00 12.2 12 Sur 21 Sudeste 0 1007.3 2.2 92
2020-03-24 20:00:00 12.5 13 Sur 28 Sur 0 1006.3 1.6 93
2020-03-24 19:00:00 13.9 14 Sur 23 Sudoeste 0 1005.8 1.4 88
2020-03-24 18:00:00 13.4 7 Sudeste 13 Sudeste 0 1005.1 0 88
2020-03-24 17:00:00 12.4 9 Sudeste 16 Sudeste 0.1 1004.7 -0.6 92
2020-03-24 16:00:00 11.6 12 Sudeste 17 Sudeste 2.1 1004.4 -0.4 98
2020-03-24 15:00:00 12 7 Sudeste 12 Sudeste 1.1 1005.1 0.4 97
2020-03-24 14:00:00 12 6 Sudeste 14 Sudeste 1 1005.3 1.5 98
2020-03-24 13:00:00 11.9 9 Sudeste 17 Sudeste 3.4 1004.8 1.5 99
2020-03-24 12:00:00 11.4 2 Norte 26 Este 1.6 1004.7 1 99
2020-03-24 11:00:00 10.9 21 Este 35 Este 3.1 1003.8 -0.1 99
2020-03-24 10:00:00 11.3 18 Este 29 Este 0.9 1003.3 -0.1 98
2020-03-24 09:00:00 10.9 13 Este 20 Nordeste 3.9 1003.7 0.5 99
2020-03-24 08:00:00 11.4 8 Este 12 Nordeste 5.2 1003.9 0.5 99
2020-03-24 07:00:00 11.5 5 Este 9 Este 4.8 1003.4 0.2 98
2020-03-24 06:00:00 11.7 6 Sudeste 15 Este 1.2 1003.2 0.5 97
2020-03-24 05:00:00 12.6 0 Calma 13 Sudoeste 3.1 1003.4 0.1 93
2020-03-24 04:00:00 13.3 7 Sur 34 Sudeste 1.4 1003.2 -0.6 89
2020-03-24 03:00:00 13.4 26 Sudeste 41 Sudeste 1.6 1002.7 -1.5 90
2020-03-24 02:00:00 13.9 25 Sur 48 Sudeste 0.1 1003.3 -1 84
2020-03-24 01:00:00 14.2 31 Sudeste 52 Sur 0 1003.8 -0.4 73
2020-03-24 00:00:00 14.2 29 Sudeste 52 Sudeste 0 1004.2 -0.4 67
2020-03-23 23:00:00 14.3 28 Sudeste 53 Sur 0 1004.3 -0.2 63
2020-03-23 22:00:00 13.3 23 Sudeste 40 Sur 0 1004.2 -0.6 72
2020-03-23 21:00:00 12.7 26 Sudeste 42 Sur 0 1004.6 0.2 81
2020-03-23 20:00:00 12.7 24 Sudeste 44 Sur 0 1004.5 -0.2 81
2020-03-23 19:00:00 13.7 19 Sudeste 42 Sudeste 0 1004.8 0 80
2020-03-23 18:00:00 14.9 24 Sudeste 44 Sudeste 0 1004.4 -1 73
2020-03-23 17:00:00 14.4 28 Sudeste 41 Sudeste 0 1004.7 -1.3 76
2020-03-23 16:00:00 15.9 24 Sur 47 Sur 0 1004.8 -1.8 73
2020-03-23 15:00:00 15.4 30 Sur 46 Sur 0 1005.4 -1.6 77
2020-03-23 14:00:00 15.8 31 Sur 50 Sur 0 1006 -1.1 75
2020-03-23 13:00:00 14.4 24 Sur 44 Sur 0 1006.6 -- 81
2020-03-23 12:00:00 15.3 24 Sudeste 40 Sur 0 1007 -- 75
2020-03-23 11:00:00 14.5 24 Sudeste 36 Sudeste 0 1007.1 -- 76
2020-03-23 10:00:00 -- -- -- -- -- -- -- -- --
2020-03-23 09:00:00 -- -- -- -- -- -- -- -- --
2020-03-23 08:00:00 -- -- -- -- -- -- -- -- --
2020-03-23 07:00:00 -- -- -- -- -- -- -- -- --
2020-03-23 06:00:00 -- -- -- -- -- -- -- -- --
2020-03-23 05:00:00 -- -- -- -- -- -- -- -- --
2020-03-23 04:00:00 -- -- -- -- -- -- -- -- --
2020-03-23 03:00:00 -- -- -- -- -- -- -- -- --
2020-03-23 02:00:00 -- -- -- -- -- -- -- -- --
2020-03-23 01:00:00 -- -- -- -- -- -- -- -- --
2020-03-23 00:00:00 -- -- -- -- -- -- -- -- --
2020-03-22 23:00:00 -- -- -- -- -- -- -- -- --
2020-03-22 22:00:00 -- -- -- -- -- -- -- -- --
2020-03-22 21:00:00 -- -- -- -- -- -- -- -- --
2020-03-22 20:00:00 -- -- -- -- -- -- -- -- --
2020-03-22 19:00:00 -- -- -- -- -- -- -- -- --
2020-03-22 18:00:00 -- -- -- -- -- -- -- -- --
2020-03-22 17:00:00 -- -- -- -- -- -- -- -- --
2020-03-22 16:00:00 -- -- -- -- -- -- -- -- --
2020-03-22 15:00:00 -- -- -- -- -- -- -- -- --
2020-03-22 14:00:00 -- -- -- -- -- -- -- -- --
2020-03-22 13:00:00 -- -- -- -- -- -- -- -- --
2020-03-22 12:00:00 -- -- -- -- -- -- -- -- --
2020-03-22 11:00:00 -- -- -- -- -- -- -- -- --
2020-03-22 10:00:00 -- -- -- -- -- -- -- -- --
2020-03-22 09:00:00 -- -- -- -- -- -- -- -- --
2020-03-22 08:00:00 -- -- -- -- -- -- -- -- --
2020-03-22 07:00:00 -- -- -- -- -- -- -- -- --
2020-03-22 06:00:00 -- -- -- -- -- -- -- -- --
2020-03-22 05:00:00 -- -- -- -- -- -- -- -- --
2020-03-22 04:00:00 -- -- -- -- -- -- -- -- --
2020-03-22 03:00:00 -- -- -- -- -- -- -- -- --
2020-03-22 02:00:00 -- -- -- -- -- -- -- -- --
2020-03-22 01:00:00 -- -- -- -- -- -- -- -- --
2020-03-22 00:00:00 -- -- -- -- -- -- -- -- --
2020-03-21 23:00:00 -- -- -- -- -- -- -- -- --
2020-03-21 22:00:00 -- -- -- -- -- -- -- -- --
2020-03-21 21:00:00 -- -- -- -- -- -- -- -- --
2020-03-21 20:00:00 -- -- -- -- -- -- -- -- --
2020-03-21 19:00:00 -- -- -- -- -- -- -- -- --
2020-03-21 18:00:00 -- -- -- -- -- -- -- -- --
2020-03-21 17:00:00 -- -- -- -- -- -- -- -- --
2020-03-21 16:00:00 -- -- -- -- -- -- -- -- --
2020-03-21 15:00:00 -- -- -- -- -- -- -- -- --
2020-03-21 14:00:00 -- -- -- -- -- -- -- -- --
2020-03-21 13:00:00 -- -- -- -- -- -- -- -- --
2020-03-21 12:00:00 -- -- -- -- -- -- -- -- --
2020-03-21 11:00:00 -- -- -- -- -- -- -- -- --
2020-03-21 10:00:00 -- -- -- -- -- -- -- -- --
2020-03-21 09:00:00 -- -- -- -- -- -- -- -- --
2020-03-21 08:00:00 -- -- -- -- -- -- -- -- --
2020-03-21 07:00:00 -- -- -- -- -- -- -- -- --
2020-03-21 06:00:00 -- -- -- -- -- -- -- -- --
2020-03-21 05:00:00 -- -- -- -- -- -- -- -- --
2020-03-21 04:00:00 -- -- -- -- -- -- -- -- --
2020-03-21 03:00:00 -- -- -- -- -- -- -- -- --
2020-03-21 02:00:00 -- -- -- -- -- -- -- -- --
2020-03-21 01:00:00 -- -- -- -- -- -- -- -- --
2020-03-21 00:00:00 -- -- -- -- -- -- -- -- --
2020-03-20 23:00:00 -- -- -- -- -- -- -- -- --
2020-03-20 22:00:00 -- -- -- -- -- -- -- -- --
2020-03-20 21:00:00 -- -- -- -- -- -- -- -- --
2020-03-20 20:00:00 -- -- -- -- -- -- -- -- --
2020-03-20 19:00:00 -- -- -- -- -- -- -- -- --
2020-03-20 18:00:00 -- -- -- -- -- -- -- -- --
2020-03-20 17:00:00 -- -- -- -- -- -- -- -- --
2020-03-20 16:00:00 -- -- -- -- -- -- -- -- --
2020-03-20 15:00:00 -- -- -- -- -- -- -- -- --
2020-03-20 14:00:00 15.4 35 Este 57 Este 0 1009.4 -0.9 85
2020-03-20 13:00:00 15.4 40 Este 59 Este 0 1009.8 -0.1 85
2020-03-20 12:00:00 14.9 32 Este 51 Este 0 1010.3 0.7 88
2020-03-20 11:00:00 14.7 32 Este 51 Este 0 1010.3 1.5 88
2020-03-20 10:00:00 14.9 33 Este 54 Este 0 1009.9 1.1 87
2020-03-20 09:00:00 14.5 28 Este 52 Este 0 1009.6 1.1 91
2020-03-20 08:00:00 14.4 31 Este 49 Este 0 1008.8 0.7 90
2020-03-20 07:00:00 14.4 33 Este 56 Este 0 1008.8 0.8 89
2020-03-20 06:00:00 14.2 36 Este 60 Este 0 1008.5 -0.3 92
2020-03-20 05:00:00 14.3 42 Este 60 Este 0 1008.1 -1.1 89
2020-03-20 04:00:00 14.5 40 Este 62 Este 0 1008 -1.5 88
2020-03-20 03:00:00 14.5 38 Este 62 Este 0 1008.8 -1.5 90
2020-03-20 02:00:00 14.5 40 Este 63 Este 0 1009.2 -0.7 89
2020-03-20 01:00:00 14.7 42 Este 60 Este 0 1009.5 0 89
2020-03-20 00:00:00 14.9 38 Este 59 Este 0 1010.3 0.9 90
2020-03-19 23:00:00 14.6 39 Este 66 Este 0 1009.9 1.2 91
2020-03-19 22:00:00 14.7 45 Este 68 Este 0 1009.5 1.2 89
2020-03-19 21:00:00 14.7 41 Este 63 Este 0 1009.4 1 90
2020-03-19 20:00:00 14.6 41 Este 63 Este 0 1008.7 0.2 89
2020-03-19 19:00:00 14.8 43 Este 70 Este 0 1008.3 -1.2 88
2020-03-19 18:00:00 14.9 43 Este 72 Este 0 1008.4 -1.8 88
2020-03-19 17:00:00 15 50 Este 76 Este 0 1008.5 -1.8 86
2020-03-19 16:00:00 15 46 Este 75 Este 0 1009.5 -1.4 86
2020-03-19 15:00:00 15.1 49 Este 77 Este 0 1010.2 -1.2 87
2020-03-19 14:00:00 14.9 52 Este 76 Este 0 1010.3 -1.8 88
2020-03-19 13:00:00 14.9 50 Este 78 Este 0 1010.9 -1.1 87
2020-03-19 12:00:00 15 51 Este 72 Este 0 1011.4 0.4 88
2020-03-19 11:00:00 15.2 46 Este 72 Este 0 1012.1 1.4 86
2020-03-19 10:00:00 14.9 47 Este 69 Este 0 1012 2 86
2020-03-19 09:00:00 14.7 47 Este 75 Este 0 1011 -0.1 88
2020-03-19 08:00:00 14.6 48 Este 76 Este 0 1010.7 -0.6 89
2020-03-19 07:00:00 14.6 50 Este 73 Este 0 1010 -3.1 89
2020-03-19 06:00:00 14.6 39 Este 67 Este 0 1011.1 -2.4 91
2020-03-19 05:00:00 14.7 40 Este 62 Este 0 1011.3 -2.7 91
2020-03-19 04:00:00 14.9 36 Este 56 Este 0 1013.1 -0.8 92
2020-03-19 03:00:00 14.8 39 Este 60 Este 0 1013.5 0.4 92
2020-03-19 02:00:00 14.9 37 Este 64 Este 0 1014 1.5 91
2020-03-19 01:00:00 14.9 40 Este 72 Este 0 1013.9 1.8 89
2020-03-19 00:00:00 15 49 Este 74 Este 0 1013.1 1.5 89
2020-03-18 23:00:00 15.1 51 Este 80 Este 0 1012.5 1.2 87
2020-03-18 22:00:00 15.4 61 Este 82 Este 0 1012.1 0.2 85
2020-03-18 21:00:00 15.1 51 Este 77 Este 0 1011.6 -0.4 86
2020-03-18 20:00:00 15.2 50 Este 76 Este 0 1011.3 -0.3 84
2020-03-18 19:00:00 15.1 46 Este 70 Este 0 1011.9 0.7 87
2020-03-18 18:00:00 15.8 39 Este 72 Nordeste 0 1012 -0.8 85
2020-03-18 17:00:00 15.9 46 Este 84 Este 0 1011.6 -1 83
2020-03-18 16:00:00 16.4 44 Este 76 Nordeste 0 1011.2 -1.3 81
2020-03-18 15:00:00 16.2 42 Este 80 Este 0 1012.8 -0.5 85
2020-03-18 14:00:00 16.4 51 Este 85 Nordeste 0 1012.6 -1.6 82
2020-03-18 13:00:00 16.2 49 Este 77 Este 0 1012.5 -1.4 83
2020-03-18 12:00:00 15.1 48 Este 78 Este 0 1013.3 0.3 87
2020-03-18 11:00:00 14.7 42 Nordeste 73 Nordeste 0 1014.2 2 90
2020-03-18 10:00:00 14.3 38 Nordeste 67 Este 0 1013.9 2.2 95
2020-03-18 09:00:00 14.2 41 Este 74 Este 0.1 1013 1.8 97
2020-03-18 08:00:00 14.1 46 Este 78 Este 0.1 1012.2 1.5 99
2020-03-18 07:00:00 14.1 41 Este 73 Nordeste 0.6 1011.7 1.4 99
2020-03-18 06:00:00 14.2 46 Nordeste 81 Este 0.1 1011.2 0.5 97
2020-03-18 05:00:00 14.3 45 Este 80 Este 0.1 1010.7 -0.5 97
2020-03-18 04:00:00 14.4 46 Este 72 Este 0.3 1010.3 1.3 97
2020-03-18 03:00:00 14.4 42 Este 77 Este 0.7 1010.7 -1.9 98
2020-03-18 02:00:00 14.7 41 Este 79 Este 0.2 1011.2 -1.5 97
2020-03-18 01:00:00 14.5 50 Nordeste 87 Nordeste 1.6 1009 -3 98
2020-03-18 00:00:00 14.4 36 Este 68 Este 9.7 1012.6 0.1 99
2020-03-17 23:00:00 13.8 42 Este 73 Este 2.5 1012.7 1.5 99
2020-03-17 22:00:00 14.3 47 Este 73 Este 0 1012 1.1 88
2020-03-17 21:00:00 14.6 37 Este 69 Este 0 1012.5 0.6 79
2020-03-17 20:00:00 14.4 40 Este 68 Este 0 1011.2 -0.9 81
2020-03-17 19:00:00 14.7 41 Este 66 Este 0 1010.9 -1.2 79
2020-03-17 18:00:00 15 35 Este 58 Este 0 1011.9 -0.2 78
2020-03-17 17:00:00 15.6 37 Este 66 Este 0 1012.1 -1.1 72
2020-03-17 16:00:00 14.8 39 Este 62 Este 0 1012.1 -1.8 76
2020-03-17 15:00:00 14.9 41 Este 64 Este 0 1012.1 -2 72
2020-03-17 14:00:00 14.6 26 Este 48 Este 0 1013.2 -0.6 72
2020-03-17 13:00:00 13.6 26 Este 42 Este 0 1013.9 0.5 73
2020-03-17 12:00:00 13.6 27 Este 48 Este 0 1014.1 1.2 70
2020-03-17 11:00:00 13 21 Este 35 Nordeste 0 1013.8 1 77
2020-03-17 10:00:00 12.7 17 Sudeste 33 Sudeste 0 1013.4 1.3 67
2020-03-17 09:00:00 10.4 17 Sudeste 35 Este 1.1 1012.9 1.4 63
2020-03-17 08:00:00 10.4 19 Sudeste 33 Sudeste 0.8 1012.8 1.4 81
2020-03-17 07:00:00 11.2 7 Sudeste 48 Sur 0 1012.1 0.4 81
2020-03-17 06:00:00 11 33 Sur 47 Sur 0 1011.5 -0.6 78
2020-03-17 05:00:00 11.3 24 Sur 39 Sur 0 1011.4 -0.9 77
2020-03-17 04:00:00 11.6 16 Sur 30 Sur 0 1011.7 -0.6 79
2020-03-17 03:00:00 11.7 18 Sur 31 Sur 0 1012.1 -0.2 79
2020-03-17 02:00:00 11.6 19 Sur 28 Sur 0 1012.3 -0.4 75
2020-03-17 01:00:00 9.3 3 Sudoeste 17 Noroeste 0 1012.3 0.1 63
2020-03-17 00:00:00 11.4 10 Noroeste 18 Oeste 0 1012.3 0.3 53
2020-03-16 23:00:00 12.1 7 Norte 19 Norte 0 1012.7 1.2 52
2020-03-16 22:00:00 14.3 17 Oeste 42 Sudoeste 0 1012.2 1.3 58
2020-03-16 21:00:00 14.3 27 Sudoeste 44 Oeste 0 1012 1 67
2020-03-16 20:00:00 14.2 24 Oeste 46 Oeste 0 1011.5 0.2 62
2020-03-16 19:00:00 14.9 27 Oeste 53 Oeste 0 1010.9 -0.6 50
2020-03-16 18:00:00 14.9 29 Oeste 46 Sudoeste 0 1011 -0.6 47
2020-03-16 17:00:00 14.9 31 Oeste 54 Oeste 0 1011.3 -0.3 50
2020-03-16 16:00:00 14.1 29 Oeste 52 Oeste 0 1011.5 -0.7 57
2020-03-16 15:00:00 13.5 30 Oeste 55 Oeste 0 1011.6 -0.9 57
2020-03-16 14:00:00 13.3 32 Oeste 53 Oeste 0 1011.6 -1.3 58
2020-03-16 13:00:00 13.9 24 Oeste 41 Oeste 0 1012.2 -0.2 61
2020-03-16 12:00:00 13.4 19 Oeste 32 Oeste 0 1012.5 0.8 45
2020-03-16 11:00:00 11.5 18 Noroeste 37 Oeste 0 1012.9 2 49
2020-03-16 10:00:00 10.5 18 Noroeste 39 Noroeste 0 1012.4 2.7 54
2020-03-16 09:00:00 11 18 Oeste 31 Oeste 0 1011.7 2.9 53
2020-03-16 08:00:00 11.2 14 Noroeste 37 Norte 0 1010.9 2.4 56
2020-03-16 07:00:00 11.5 15 Noroeste 39 Norte 0 1009.7 1.1 64
2020-03-16 06:00:00 12.5 25 Norte 48 Norte 0 1008.8 -- 73
2020-03-16 05:00:00 13.7 23 Norte 40 Norte 0 1008.5 -1.4 82
2020-03-16 04:00:00 15.6 13 Sudoeste 27 Sudoeste 0 1008.6 -1.6 94
2020-03-16 03:00:00 -- -- -- -- -- -- -- -- --
2020-03-16 02:00:00 15.5 17 Sudoeste 25 Sudoeste 0 1009.9 -0.8 86
2020-03-16 01:00:00 14.8 5 Sudoeste 15 Sur 0 1010.2 -0.8 91
2020-03-16 00:00:00 14.8 4 Sur 12 Sudeste 0 1010.4 0.2 91
2020-03-15 23:00:00 14.2 6 Nordeste 20 Este 0 1010.7 1.4 93
2020-03-15 22:00:00 14.1 13 Este 24 Este 0 1011 2.1 92
2020-03-15 21:00:00 14.3 16 Este 41 Este 0 1010.2 0.7 92
2020-03-15 20:00:00 14.6 27 Este 45 Este 0 1009.3 -0.4 92
2020-03-15 19:00:00 15 31 Este 46 Este 0 1008.9 -1 89
2020-03-15 18:00:00 16 27 Este 43 Este 0 1009.5 -0.8 84
2020-03-15 17:00:00 16.7 30 Este 47 Este 0 1009.7 -1.5 80
2020-03-15 16:00:00 16.5 31 Este 49 Este 0 1009.9 -1.7 80
2020-03-15 15:00:00 16.2 31 Este 49 Este 0 1010.3 -1.6 84
2020-03-15 14:00:00 16.3 31 Este 52 Este 0 1011.2 -0.5 80
2020-03-15 13:00:00 16.5 35 Este 53 Este 0 1011.6 0 82
2020-03-15 12:00:00 16 34 Este 54 Este 0 1011.9 0.7 83
2020-03-15 11:00:00 16 37 Este 57 Este 0 1011.7 0.7 86
2020-03-15 10:00:00 15.3 32 Este 57 Este 0 1011.6 1 86
2020-03-15 09:00:00 15 33 Este 53 Este 0 1011.2 0.2 87
2020-03-15 08:00:00 14.7 35 Este 56 Este 0 1011 -0.1 87
2020-03-15 07:00:00 14.7 33 Este 54 Nordeste 0 1010.6 -0.3 86
2020-03-15 06:00:00 14.7 30 Este 50 Este 0 1011 -0.9 87
2020-03-15 05:00:00 14.6 28 Este 56 Este 0 1011.1 -0.9 88
2020-03-15 04:00:00 14.5 37 Este 56 Este 0 1010.9 -1.1 89
2020-03-15 03:00:00 14.7 31 Este 54 Este 0 1011.9 -0.4 89
2020-03-15 02:00:00 14.6 36 Este 60 Este 0 1012 -0.5 84
2020-03-15 01:00:00 14.7 37 Este 59 Este 0 1012 -0.2 85
2020-03-15 00:00:00 14.6 38 Este 57 Este 0 1012.3 0.2 85
2020-03-14 23:00:00 14.5 36 Este 57 Este 0 1012.5 0.4 87
2020-03-14 22:00:00 14.4 32 Este 53 Este 0 1012.2 0.1 86
2020-03-14 21:00:00 14.5 35 Este 48 Este 0 1012.1 -0.2 86
2020-03-14 20:00:00 14.8 31 Este 47 Este 0 1012.1 -0.5 84
2020-03-14 19:00:00 15.6 31 Este 48 Este 0 1012.1 -- 81
2020-03-14 18:00:00 16.2 28 Este 47 Este 0 1012.3 -0.8 78
2020-03-14 17:00:00 16.9 28 Este 48 Este 0 1012.6 -1.7 78
2020-03-14 16:00:00 -- -- -- -- -- -- -- -- --
2020-03-14 15:00:00 17.9 30 Este 51 Este 0 1013.1 -2.1 72
2020-03-14 14:00:00 17.5 27 Este 39 Este 0 1014.3 -0.9 77
2020-03-14 13:00:00 17.7 27 Este 35 Este 0 1014.9 -0.4 73
2020-03-14 12:00:00 17.8 21 Este 34 Este 0 1015.2 0.3 72
2020-03-14 11:00:00 16.6 17 Este 30 Este 0 1015.2 0.5 78
2020-03-14 10:00:00 16 13 Nordeste 23 Nordeste 0 1015.3 1.5 83
2020-03-14 09:00:00 14.6 15 Nordeste 25 Nordeste 0 1014.9 1 90
2020-03-14 08:00:00 13 8 Nordeste 22 Nordeste 0 1014.7 0.8 95
2020-03-14 07:00:00 11.7 11 Nordeste 18 Nordeste 0 1013.8 -0.5 98
2020-03-14 06:00:00 10.2 7 Nordeste 11 Nordeste 0 1013.9 -0.6 99
2020-03-14 05:00:00 9.7 6 Nordeste 9 Nordeste 0 1013.9 -0.8 99
2020-03-14 04:00:00 9.7 5 Nordeste 7 Nordeste 0 1014.3 -0.5 98
2020-03-14 03:00:00 9.9 4 Nordeste 7 Este 0 1014.5 -0.1 97
2020-03-14 02:00:00 10.5 4 Nordeste 9 Este 0 1014.7 0.3 96
2020-03-14 01:00:00 11.4 6 Nordeste 9 Norte 0 1014.8 0.8 95
2020-03-14 00:00:00 11.8 8 Norte 9 Norte 0 1014.6 0.9 94
2020-03-13 23:00:00 12.2 5 Norte 9 Noroeste 0 1014.4 1.2 92
2020-03-13 22:00:00 14 7 Noroeste 16 Oeste 0 1014 1 86
2020-03-13 21:00:00 14.6 9 Oeste 17 Oeste 0 1013.7 1.2 86
2020-03-13 20:00:00 15.1 10 Oeste 21 Oeste 0 1013.2 0.5 83
2020-03-13 19:00:00 15.8 13 Oeste 27 Oeste 0 1013 0.1 82
2020-03-13 18:00:00 16.5 16 Oeste 32 Oeste 0 1012.5 -1.1 76
2020-03-13 17:00:00 16.7 21 Oeste 76 Oeste 0 1012.7 -1.6 76
2020-03-13 16:00:00 16.7 17 Oeste 33 Noroeste 0 1012.9 -1.7 76
2020-03-13 15:00:00 16.4 19 Noroeste 30 Oeste 0 1013.6 -1.2 77
2020-03-13 14:00:00 16.9 16 Noroeste 30 Oeste 0 1014.3 -0.5 75
2020-03-13 13:00:00 16.4 19 Oeste 29 Oeste 0 1014.6 -0.2 77
2020-03-13 12:00:00 16.3 14 Noroeste 26 Noroeste 0 1014.8 0.5 79
2020-03-13 11:00:00 15.6 14 Noroeste 24 Oeste 0 1014.8 1.2 82
2020-03-13 10:00:00 15.3 12 Noroeste 23 Oeste 0 1014.8 1.5 83
2020-03-13 09:00:00 14.9 10 Noroeste 18 Oeste 0 1014.3 1.2 86
2020-03-13 08:00:00 14.7 14 Oeste 22 Oeste 0 1013.6 0.6 88
2020-03-13 07:00:00 14.8 10 Noroeste 20 Oeste 0 1013.3 -0.1 90
2020-03-13 06:00:00 14.3 9 Oeste 16 Noroeste 0 1013.1 -0.5 91
2020-03-13 05:00:00 14.2 11 Noroeste 21 Noroeste 0 1013 -1.2 93
2020-03-13 04:00:00 14 10 Noroeste 20 Oeste 0 1013.4 -0.8 95
2020-03-13 03:00:00 14.4 13 Noroeste 23 Oeste 0 1013.6 -0.8 97
2020-03-13 02:00:00 14.7 11 Oeste 22 Oeste 0 1014.2 0.1 99
2020-03-13 01:00:00 14.6 11 Oeste 25 Oeste 0 1014.2 0.8 99
2020-03-13 00:00:00 14.4 10 Sudoeste 18 Sudoeste 0 1014.4 0.9 98
2020-03-12 23:00:00 15 10 Sudoeste 17 Sudoeste 0 1014.1 0.7 98
2020-03-12 22:00:00 15.3 6 Oeste 18 Oeste 0 1013.4 0.5 93
2020-03-12 21:00:00 15.2 12 Oeste 23 Oeste 0 1013.5 0.6 98
2020-03-12 20:00:00 15.3 11 Oeste 21 Noroeste 0 1013.4 0.2 96
2020-03-12 19:00:00 15.8 14 Oeste 22 Oeste 0 1012.9 -0.7 92
2020-03-12 18:00:00 16.4 9 Noroeste 19 Oeste 0 1012.9 -1.5 90
2020-03-12 17:00:00 18 10 Oeste 17 Oeste 0 1013.2 -1.7 80
2020-03-12 16:00:00 16.7 9 Oeste 22 Oeste 0 1013.6 -2.4 85
2020-03-12 15:00:00 17 15 Oeste 21 Oeste 0 1014.4 -1.8 84
2020-03-12 14:00:00 18.4 8 Oeste 15 Oeste 0 1014.9 -1.2 74
2020-03-12 13:00:00 19.1 5 Sur 13 Oeste 0 1016 0.3 67
2020-03-12 12:00:00 19.5 6 Sudoeste 24 Este 0 1016.2 0.8 71
2020-03-12 11:00:00 19.1 14 Este 26 Este 0 1016.1 1.5 55
2020-03-12 10:00:00 18 17 Este 27 Este 0 1015.7 1.7 61
2020-03-12 09:00:00 16.9 13 Este 32 Este 0 1015.4 1.6 65
2020-03-12 08:00:00 16 22 Este 36 Este 0 1014.6 1.1 71
2020-03-12 07:00:00 15.7 26 Este 36 Este 0 1014 0 67
2020-03-12 06:00:00 15.5 28 Este 37 Este 0 1013.8 -1 74
2020-03-12 05:00:00 15.6 25 Este 36 Este 0 1013.5 -1.3 73
2020-03-12 04:00:00 15.8 27 Este 36 Este 0 1014 -0.8 75
2020-03-12 03:00:00 18.5 19 Este 39 Este 0 1014.8 -0.3 54
2020-03-12 02:00:00 21 25 Este 37 Este 0 1014.8 -0.6 38
2020-03-12 01:00:00 21.1 24 Este 39 Este 0 1014.8 -0.1 35
2020-03-12 00:00:00 20.8 28 Este 44 Este 0 1015.1 0.1 35
2020-03-11 23:00:00 19.6 27 Este 40 Este 0 1015.4 0.6 43
2020-03-11 22:00:00 19.1 26 Este 44 Este 0 1014.9 0.2 45
2020-03-11 21:00:00 17.9 25 Este 47 Este 0 1015 0.2 57
2020-03-11 20:00:00 18.9 28 Este 47 Este 0 1014.8 -0.3 48
2020-03-11 19:00:00 18.5 28 Este 48 Este 0 1014.7 -0.1 54
2020-03-11 18:00:00 19.4 31 Este 44 Este 0 1014.8 -0.9 52
2020-03-11 17:00:00 18.4 29 Este 60 Este 0 1015.1 -1.8 61
2020-03-11 16:00:00 18 37 Este 53 Este 0 1014.8 -2.2 61
2020-03-11 15:00:00 18.8 35 Este 50 Este 0 1015.7 -1 57
2020-03-11 14:00:00 18.3 30 Este 59 Este 0 1016.9 -0.3 55
2020-03-11 13:00:00 18.3 35 Este 69 Nordeste 0 1017 -0.8 53
2020-03-11 12:00:00 19 46 Este 67 Este 0 1016.7 -1 51
2020-03-11 11:00:00 18.2 37 Este 69 Este 0 1017.2 -0.4 55
2020-03-11 10:00:00 16.9 33 Este 52 Este 0 1017.8 0.3 67
2020-03-11 09:00:00 16 28 Este 82 Nordeste 0 1017.7 0.4 69
2020-03-11 08:00:00 15.3 25 Este 48 Este 0 1017.6 0.7 67
2020-03-11 07:00:00 15.5 27 Este 53 Nordeste 0 1017.5 0.5 62
2020-03-11 06:00:00 15.6 26 Este 57 Este 0 1017.3 -0.7 60
2020-03-11 05:00:00 16 30 Nordeste 61 Este 0 1016.9 -1.5 58
2020-03-11 04:00:00 16.2 36 Nordeste 60 Este 0 1017 -2.2 55
2020-03-11 03:00:00 16.2 32 Este 51 Este 0 1018 -1.5 55
2020-03-11 02:00:00 16.5 30 Nordeste 50 Nordeste 0 1018.4 -1.4 53
2020-03-11 01:00:00 16.3 23 Nordeste 53 Este 0 1019.2 -0.8 55
2020-03-11 00:00:00 16.3 28 Nordeste 51 Nordeste 0 1019.5 -0.8 58
2020-03-10 23:00:00 15.8 23 Nordeste 42 Nordeste 0 1019.8 -0.5 61
2020-03-10 22:00:00 16.3 25 Este 47 Este 0 1020 0.3 56
2020-03-10 21:00:00 16.4 23 Este 42 Este 0 1020.3 0.5 50
2020-03-10 20:00:00 16.7 27 Este 58 Este 0 1020.3 0.4 51
2020-03-10 19:00:00 17.4 34 Este 54 Este 0 1019.7 -0.5 48
2020-03-10 18:00:00 18.1 33 Este 58 Este 0 1019.8 -0.1 49
2020-03-10 17:00:00 17.6 27 Este 49 Este 0 1019.9 -0.5 74
2020-03-10 16:00:00 18.1 28 Este 53 Este 0 1020.2 -0.6 78
2020-03-10 15:00:00 18.6 32 Este 49 Este 0 1019.9 -1.4 72
2020-03-10 14:00:00 19.1 27 Este 50 Este 0 1020.4 -0.7 69
2020-03-10 13:00:00 18.6 32 Este 50 Este 0 1020.8 0.1 68
2020-03-10 12:00:00 17.7 13 Este 26 Este 0 1021.3 1.5 65
2020-03-10 11:00:00 16.3 6 Oeste 12 Noroeste 0 1021.1 1.9 80
2020-03-10 10:00:00 15.2 7 Noroeste 12 Noroeste 0 1020.7 1.7 85
2020-03-10 09:00:00 13.9 6 Norte 13 Norte 0 1019.8 1.6 95
2020-03-10 08:00:00 11.6 10 Norte 14 Norte 0 1019.2 0.9 96
2020-03-10 07:00:00 11.3 9 Norte 12 Norte 0 1019 0.4 98
2020-03-10 06:00:00 11.6 2 Norte 14 Noroeste 0 1018.2 -1.1 94
2020-03-10 05:00:00 12.3 8 Noroeste 12 Norte 0 1018.3 -1.3 95
2020-03-10 04:00:00 12.2 8 Norte 11 Norte 0 1018.6 -1.3 96
2020-03-10 03:00:00 13.4 5 Noroeste 16 Oeste 0 1019.3 -1.4 94
2020-03-10 02:00:00 13.5 10 Noroeste 21 Noroeste 0 1019.6 -0.9 94
2020-03-10 01:00:00 14.1 16 Noroeste 26 Oeste 0 1019.9 -0.6 91
2020-03-10 00:00:00 14.3 8 Oeste 24 Sudoeste 0 1020.7 0.6 90
2020-03-09 23:00:00 14.6 16 Sudoeste 28 Oeste 0 1020.5 0.6 92
2020-03-09 22:00:00 14.6 14 Sudoeste 35 Oeste 0 1020.5 0.8 92
2020-03-09 21:00:00 14.8 19 Oeste 33 Sudoeste 0 1020.1 0.5 88
2020-03-09 20:00:00 14.6 17 Sudoeste 34 Sudoeste 0 1019.9 0.5 90
2020-03-09 19:00:00 15.5 23 Sudoeste 45 Oeste 0 1019.7 0.1 85
2020-03-09 18:00:00 16.2 19 Sudoeste 37 Oeste 0 1019.6 -0.6 82
2020-03-09 17:00:00 16.8 22 Sudoeste 39 Sudoeste 0 1019.4 -1.4 79
2020-03-09 16:00:00 16.7 23 Oeste 43 Sudoeste 0 1019.6 -1.9 79
2020-03-09 15:00:00 17 22 Oeste 44 Oeste 0 1020.2 -1.7 76
2020-03-09 14:00:00 17.4 23 Sudoeste 35 Sudoeste 0 1020.8 -0.9 73
2020-03-09 13:00:00 16.9 22 Sudoeste 34 Oeste 0 1021.5 0.4 71
2020-03-09 12:00:00 16.6 18 Sudoeste 27 Sudoeste 0 1021.9 1 70
2020-03-09 11:00:00 14.9 16 Oeste 24 Oeste 0 1021.7 1.6 75
2020-03-09 10:00:00 14 10 Oeste 14 Oeste 0 1021.1 1 68
2020-03-09 09:00:00 11.3 6 Noroeste 10 Noroeste 0 1020.9 1.1 70
2020-03-09 08:00:00 8.5 4 Norte 10 Norte 0 1020.1 0.3 81
2020-03-09 07:00:00 11.5 8 Noroeste 17 Noroeste 0 1020.1 0.1 68
2020-03-09 06:00:00 10.4 2 Noroeste 13 Noroeste 0 1019.8 -0.4 77
2020-03-09 05:00:00 11.8 5 Oeste 12 Oeste 0 1019.8 -0.6 69
2020-03-09 04:00:00 12.9 6 Noroeste 19 Noroeste 0 1020 -0.4 63
2020-03-09 03:00:00 13.5 5 Oeste 17 Noroeste 0 1020.2 -0.8 63
2020-03-09 02:00:00 14.4 10 Noroeste 24 Norte 0 1020.4 -0.9 55
2020-03-09 01:00:00 15.2 13 Noroeste 24 Noroeste 0 1020.4 -0.4 54
2020-03-09 00:00:00 14.9 6 Oeste 16 Noroeste 0 1021 0.1 65
2020-03-08 23:00:00 13.6 12 Noroeste 14 Noroeste 0 1021.3 0.9 80
2020-03-08 22:00:00 12 0 Calma 5 Noroeste 0 1020.8 0.5 81
2020-03-08 21:00:00 14.5 7 Noroeste 14 Oeste 0 1020.9 1.3 76
2020-03-08 20:00:00 15.7 6 Oeste 17 Oeste 0 1020.4 0.8 72
2020-03-08 19:00:00 18.3 10 Oeste 19 Este 0 1020.3 0.3 43
2020-03-08 18:00:00 17.4 15 Este 25 Este 0 1019.6 -0.8 58
2020-03-08 17:00:00 17.6 18 Este 30 Este 0 1019.6 -1.5 59
2020-03-08 16:00:00 17.2 20 Este 35 Este 0 1020 -1.8 74
2020-03-08 15:00:00 16.5 22 Este 35 Este 0 1020.4 -1.4 82
2020-03-08 14:00:00 16.8 24 Este 39 Este 0 1021.1 -0.8 79
2020-03-08 13:00:00 16.6 25 Este 37 Este 0 1021.8 0.4 74
2020-03-08 12:00:00 16.6 23 Este 34 Este 0 1021.8 0.9 74
2020-03-08 11:00:00 16.2 25 Este 39 Este 0 1021.9 2.2 74
2020-03-08 10:00:00 15.4 19 Nordeste 34 Este 0 1021.4 1.6 76
2020-03-08 09:00:00 14.1 17 Nordeste 34 Este 0 1020.9 1.4 85
2020-03-08 08:00:00 12.8 26 Este 36 Este 0 1019.7 0.5 90
2020-03-08 07:00:00 12.7 16 Nordeste 28 Nordeste 0 1019.8 0.4 85
2020-03-08 06:00:00 13.5 16 Nordeste 27 Este 0 1019.5 -0.5 73
2020-03-08 05:00:00 12.1 10 Este 18 Este 0 1019.2 -0.9 49
2020-03-08 04:00:00 9.9 9 Nordeste 12 Nordeste 0 1019.4 -1.1 63
2020-03-08 03:00:00 10.1 7 Nordeste 10 Nordeste 0 1020 -0.7 63
2020-03-08 02:00:00 9 8 Nordeste 10 Nordeste 0 1020.1 -0.8 69
2020-03-08 01:00:00 10.8 6 Norte 14 Nordeste 0 1020.5 -0.1 58
2020-03-08 00:00:00 13.1 11 Nordeste 19 Este 0 1020.7 0.5 58
2020-03-07 23:00:00 11.9 5 Nordeste 18 Noroeste 0 1020.9 1.3 54
2020-03-07 22:00:00 12.8 8 Nordeste 11 Nordeste 0 1020.6 1.4 49
2020-03-07 21:00:00 13.9 8 Nordeste 15 Nordeste 0 1020.2 1.4 47
2020-03-07 20:00:00 14.8 13 Nordeste 14 Nordeste 0 1019.6 1.2 46
2020-03-07 19:00:00 16.7 8 Nordeste 21 Este 0 1019.2 0.4 43
2020-03-07 18:00:00 17.3 16 Este 28 Este 0 1018.8 -0.8 47
2020-03-07 17:00:00 17.6 17 Este 29 Este 0 1018.4 -1.6 56
2020-03-07 16:00:00 17.4 18 Este 29 Este 0 1018.8 -1.6 52
2020-03-07 15:00:00 17.4 16 Este 24 Este 0 1019.6 -1.2 47
2020-03-07 14:00:00 16.6 15 Este 28 Este 0 1020 -0.5 55
2020-03-07 13:00:00 16.6 18 Este 23 Este 0 1020.4 0.2 54
2020-03-07 12:00:00 16.4 7 Sudeste 12 Sudeste 0 1020.8 1 58
2020-03-07 11:00:00 15.8 4 Sudeste 13 Sur 0 1020.5 1.3 67
2020-03-07 10:00:00 14.6 5 Sudeste 10 Este 0 1020.2 1.3 75
2020-03-07 09:00:00 10.4 4 Norte 11 Norte 0 1019.8 1 94
2020-03-07 08:00:00 7.8 6 Nordeste 9 Nordeste 0 1019.2 0.5 93
2020-03-07 07:00:00 8.4 6 Nordeste 17 Este 0 1018.9 -0.2 88
2020-03-07 06:00:00 7.2 6 Nordeste 11 Noroeste 0 1018.8 -1.1 83
2020-03-07 05:00:00 10.4 8 Noroeste 21 Noroeste 0 1018.7 -1.3 70
2020-03-07 04:00:00 9.7 12 Noroeste 18 Noroeste 0 1019.1 -1 82
2020-03-07 03:00:00 11.5 10 Noroeste 18 Noroeste 0 1019.9 -0.6 76
2020-03-07 02:00:00 10 4 Norte 17 Noroeste 0 1020 -0.3 89
2020-03-07 01:00:00 11.6 9 Noroeste 12 Noroeste 0 1020.1 -0.1 85
2020-03-07 00:00:00 14 7 Noroeste 36 Oeste 0 1020.5 1 81
2020-03-06 23:00:00 14.6 22 Oeste 39 Sudoeste 0 1020.3 1.5 81
2020-03-06 22:00:00 14.4 23 Oeste 41 Oeste 0 1020.2 1.6 78
2020-03-06 21:00:00 14.4 26 Oeste 46 Sudoeste 0 1019.5 1.2 74
2020-03-06 20:00:00 14.3 25 Oeste 40 Sudoeste 0 1018.8 0.9 71
2020-03-06 19:00:00 14.6 27 Oeste 49 Oeste 0 1018.6 0.2 68
2020-03-06 18:00:00 15 28 Oeste 49 Oeste 0 1018.3 -0.6 66
2020-03-06 17:00:00 15.1 31 Oeste 50 Oeste 0 1017.9 -1.7 65
2020-03-06 16:00:00 15 34 Oeste 52 Oeste 0 1018.4 -1.3 67
2020-03-06 15:00:00 15.1 32 Oeste 47 Oeste 0 1018.9 -1.5 67
2020-03-06 14:00:00 15.3 29 Oeste 49 Oeste 0 1019.6 -1.3 69
2020-03-06 13:00:00 15.3 32 Oeste 52 Oeste 0 1019.7 -1.1 72
2020-03-06 12:00:00 14.5 23 Oeste 36 Oeste 0 1020.4 0 79
2020-03-06 11:00:00 13.8 11 Oeste 24 Oeste 0 1020.9 1.5 76
2020-03-06 10:00:00 11.6 12 Oeste 24 Noroeste 0 1020.8 1.9 81
2020-03-06 09:00:00 9.4 6 Noroeste 15 Norte 0 1020.4 1.9 89
2020-03-06 08:00:00 7.8 7 Norte 14 Noroeste 0 1019.4 1.2 91
2020-03-06 07:00:00 8.3 5 Noroeste 19 Noroeste 0 1018.9 0.9 88
2020-03-06 06:00:00 9.5 8 Noroeste 22 Oeste 0 1018.5 0.4 83
2020-03-06 05:00:00 10.1 10 Oeste 26 Noroeste 0 1018.2 0.3 80
2020-03-06 04:00:00 10.6 9 Oeste 27 Noroeste 0 1018 0.1 79
2020-03-06 03:00:00 11.6 18 Norte 30 Norte 0 1018.1 0.4 75
2020-03-06 02:00:00 12 16 Noroeste 32 Noroeste 0 1017.9 0.4 78
2020-03-06 01:00:00 12.8 14 Norte 35 Noroeste 0 1017.9 0.7 81
2020-03-06 00:00:00 14.5 14 Noroeste 31 Oeste 0 1017.7 0.9 70
2020-03-05 23:00:00 14.6 14 Noroeste 34 Oeste 0 1017.5 1.2 88
2020-03-05 22:00:00 14.8 22 Oeste 37 Oeste 0 1017.2 2 88
2020-03-05 21:00:00 14.8 22 Oeste 36 Oeste 0 1016.8 1.8 87
2020-03-05 20:00:00 14.6 18 Noroeste 53 Oeste 0 1016.3 1.3 84
2020-03-05 19:00:00 14.7 23 Oeste 36 Oeste 0 1015.2 0.5 84
2020-03-05 18:00:00 13.2 22 Oeste 41 Oeste 0.5 1015 -0.2 98
2020-03-05 17:00:00 14.3 23 Oeste 45 Oeste 0 1015 -0.8 99
2020-03-05 16:00:00 15.7 29 Oeste 46 Oeste 0 1014.7 -1.6 84
2020-03-05 15:00:00 16.1 26 Oeste 45 Oeste 0 1015.2 -1.1 83
2020-03-05 14:00:00 15.8 24 Oeste 39 Sudoeste 0 1015.8 -0.9 88
2020-03-05 13:00:00 15.6 19 Oeste 33 Oeste 0 1016.3 0.6 89
2020-03-05 12:00:00 15.9 17 Oeste 66 Oeste 0 1016.3 0.6 85
2020-03-05 11:00:00 14.8 21 Oeste 34 Oeste 0 1016.7 1.7 88
2020-03-05 10:00:00 14.3 16 Noroeste 33 Oeste 0 1015.7 1.1 88
2020-03-05 09:00:00 14 19 Oeste 29 Oeste 0 1015.7 1.3 94
2020-03-05 08:00:00 13.8 17 Oeste 31 Oeste 0 1015 0.5 95
2020-03-05 07:00:00 12.4 8 Noroeste 16 Noroeste 0 1014.6 -0.4 97
2020-03-05 06:00:00 13 9 Noroeste 15 Oeste 0 1014.4 -1.3 97
2020-03-05 05:00:00 13 10 Noroeste 17 Oeste 0 1014.5 -1.8 95
2020-03-05 04:00:00 13.2 13 Oeste 22 Oeste 0 1015 -1.5 94
2020-03-05 03:00:00 13.5 13 Oeste 22 Oeste 0 1015.7 -1.4 94
2020-03-05 02:00:00 12.7 8 Noroeste 18 Norte 0 1016.3 -1.2 92
2020-03-05 01:00:00 13.3 11 Noroeste 20 Norte 0 1016.5 -1 89
2020-03-05 00:00:00 13.6 13 Noroeste 19 Noroeste 0 1017.1 -0.6 87
2020-03-04 23:00:00 13.9 11 Noroeste 17 Noroeste 0 1017.5 -0.1 86
2020-03-04 22:00:00 14.2 8 Noroeste 18 Noroeste 0 1017.5 0 84
2020-03-04 21:00:00 14.7 10 Noroeste 21 Noroeste 0 1017.7 0.2 82
2020-03-04 20:00:00 15.1 11 Noroeste 33 Oeste 0 1017.6 0.2 83
2020-03-04 19:00:00 15.9 17 Oeste 32 Oeste 0 1017.5 -0.2 85
2020-03-04 18:00:00 16.5 23 Oeste 40 Sudoeste 0 1017.5 -0.8 83
2020-03-04 17:00:00 16.6 30 Oeste 42 Oeste 0 1017.4 -1.6 80
2020-03-04 16:00:00 16.8 28 Oeste 42 Oeste 0 1017.7 -1.9 81
2020-03-04 15:00:00 17 26 Sudoeste 41 Sudoeste 0 1018.3 -2 81
2020-03-04 14:00:00 16.8 26 Sudoeste 40 Sudoeste 0 1019 -1.5 85
2020-03-04 13:00:00 16.4 27 Oeste 40 Sudoeste 0 1019.6 -1.1 86
2020-03-04 12:00:00 16.2 22 Oeste 32 Oeste 0 1020.3 0.2 85
2020-03-04 11:00:00 15.2 18 Oeste 28 Oeste 0 1020.5 0.6 88
2020-03-04 10:00:00 14.1 11 Noroeste 22 Noroeste 0 1020.7 1.1 92
2020-03-04 09:00:00 14 10 Noroeste 22 Oeste 0 1020.1 0.2 92
2020-03-04 08:00:00 13.2 10 Noroeste 21 Norte 0 1019.9 0.4 95
2020-03-04 07:00:00 14 10 Noroeste 21 Oeste 0 1019.6 -0.5 93
2020-03-04 06:00:00 14.5 12 Oeste 22 Oeste 0 1019.9 -0.8 91
2020-03-04 05:00:00 15 14 Oeste 29 Oeste 0 1019.5 -1.5 98
2020-03-04 04:00:00 15.1 18 Oeste 31 Oeste 0 1020.1 -0.9 96
2020-03-04 03:00:00 15.1 20 Oeste 32 Oeste 0 1020.7 -0.6 95
2020-03-04 02:00:00 15.1 19 Oeste 32 Oeste 0 1021 -0.6 94
2020-03-04 01:00:00 15.1 18 Oeste 31 Oeste 0 1021 -0.2 91
2020-03-04 00:00:00 15.3 18 Oeste 32 Oeste 0 1021.3 -0.1 89
2020-03-03 23:00:00 15.2 18 Oeste 35 Oeste 0 1021.6 0.6 88
2020-03-03 22:00:00 15.1 22 Oeste 35 Oeste 0 1021.2 0.8 87
2020-03-03 21:00:00 15.2 19 Oeste 28 Oeste 0 1021.4 1.3 85
2020-03-03 20:00:00 15.1 19 Oeste 33 Oeste 0 1021 0.8 83
2020-03-03 19:00:00 15.4 17 Oeste 34 Oeste 0 1020.4 0.1 82
2020-03-03 18:00:00 16.2 22 Oeste 36 Oeste 0 1020.1 -0.4 76
2020-03-03 17:00:00 16.6 22 Oeste 39 Oeste 0 1020.2 -0.6 72
2020-03-03 16:00:00 16.4 27 Oeste 41 Oeste 0 1020.3 -1.2 72
2020-03-03 15:00:00 16.3 24 Oeste 45 Oeste 0 1020.5 -1.5 72
2020-03-03 14:00:00 16.2 28 Oeste 43 Oeste 0 1020.8 -0.7 73
2020-03-03 13:00:00 15.6 20 Oeste 34 Noroeste 0 1021.5 0.7 77
2020-03-03 12:00:00 15.2 26 Oeste 39 Oeste 0 1022 1.6 76
2020-03-03 11:00:00 15 22 Oeste 36 Oeste 0 1021.5 1.9 76
2020-03-03 10:00:00 14 18 Noroeste 29 Oeste 0 1020.8 1.6 76
2020-03-03 09:00:00 12.5 18 Noroeste 28 Noroeste 0 1020.4 2.1 75
2020-03-03 08:00:00 11.4 19 Noroeste 29 Noroeste 0 1019.6 1.2 77
2020-03-03 07:00:00 11.4 16 Noroeste 24 Noroeste 0 1019.2 0.5 79
2020-03-03 06:00:00 11.6 16 Noroeste 28 Noroeste 0 1018.3 -0.8 79
2020-03-03 05:00:00 11.9 15 Noroeste 26 Oeste 0 1018.4 -0.9 77
2020-03-03 04:00:00 12.2 16 Noroeste 25 Noroeste 0 1018.7 -0.7 77
2020-03-03 03:00:00 13.1 14 Noroeste 31 Oeste 0 1019.1 -1 81
2020-03-03 02:00:00 14.8 19 Oeste 33 Oeste 0 1019.3 -0.6 88
2020-03-03 01:00:00 14.9 22 Oeste 37 Oeste 0 1019.4 0.3 88
2020-03-03 00:00:00 14.9 23 Oeste 34 Oeste 0 1020.1 1.9 86
2020-03-02 23:00:00 15.1 18 Oeste 31 Oeste 0 1019.9 2.3 84
2020-03-02 22:00:00 15.2 15 Oeste 30 Oeste 0 1019.1 2.2 81
2020-03-02 21:00:00 15.3 16 Oeste 33 Oeste 0 1018.2 2 83
2020-03-02 20:00:00 15.6 20 Oeste 38 Oeste 0 1017.6 2 89
2020-03-02 19:00:00 16.1 20 Oeste 39 Oeste 0 1016.9 1.9 89
2020-03-02 18:00:00 16.8 21 Oeste 42 Oeste 0 1016.2 1.5 90
2020-03-02 17:00:00 17.1 24 Oeste 42 Oeste 0 1015.6 0.5 90
2020-03-02 16:00:00 17 25 Oeste 45 Oeste 0 1015 -0.2 90
2020-03-02 15:00:00 17.4 28 Oeste 47 Oeste 0 1014.7 -0.5 89
2020-03-02 14:00:00 17.5 28 Oeste 49 Sudoeste 0 1015.1 0 88
2020-03-02 13:00:00 17.4 30 Sudoeste 51 Sudoeste 0 1015.2 0.6 89
2020-03-02 12:00:00 17.5 27 Sudoeste 58 Sudoeste 0 1015.2 0.8 87
2020-03-02 11:00:00 16.5 32 Sudoeste 50 Sudoeste 0 1015.1 1.9 91
2020-03-02 10:00:00 16.1 28 Sudoeste 49 Sudoeste 0.1 1014.6 1.8 93
2020-03-02 09:00:00 15.8 29 Sudoeste 51 Sudoeste 0 1014.4 1.8 94
2020-03-02 08:00:00 15.9 33 Oeste 55 Sudoeste 0 1013.2 0.2 93
2020-03-02 07:00:00 15.9 32 Sudoeste 56 Sudoeste 0 1012.8 -0.5 94
2020-03-02 06:00:00 15.9 28 Sudoeste 51 Sudoeste 0 1012.6 -1.7 94
2020-03-02 05:00:00 15.6 28 Sudoeste 94 Sudoeste 0 1013 -1.6 94
2020-03-02 04:00:00 15.7 27 Sudoeste 46 Sudoeste 0 1013.3 -1.7 94
2020-03-02 03:00:00 15.7 29 Sudoeste 47 Sudoeste 0 1014.3 -1.4 91
2020-03-02 02:00:00 15.4 26 Sudoeste 40 Sudoeste 0 1014.6 -0.4 95
2020-03-02 01:00:00 15.3 22 Sudoeste 34 Sudoeste 0 1015 -0.4 94
2020-03-02 00:00:00 15.3 18 Sudoeste 27 Sudoeste 0 1015.7 0.7 94